sensor_id;sensor_type;location;lat;lon;timestamp;pressure;altitude;pressure_sealevel;temperature;humidity
22662;BME280;11497;52.222;21.246;2024-02-16T00:01:16;101040.81;;;6.74;70.45
22662;BME280;11497;52.222;21.246;2024-02-16T00:03:44;101047.22;;;6.61;71.00
22662;BME280;11497;52.222;21.246;2024-02-16T00:06:12;101050.56;;;6.59;71.11
22662;BME280;11497;52.222;21.246;2024-02-16T00:08:40;101048.00;;;6.59;71.85
22662;BME280;11497;52.222;21.246;2024-02-16T00:11:08;101042.41;;;6.72;70.42
22662;BME280;11497;52.222;21.246;2024-02-16T00:13:37;101040.69;;;6.71;70.41
22662;BME280;11497;52.222;21.246;2024-02-16T00:16:05;101039.09;;;6.74;70.22
22662;BME280;11497;52.222;21.246;2024-02-16T00:18:34;101043.06;;;6.65;70.86
22662;BME280;11497;52.222;21.246;2024-02-16T00:21:02;101044.97;;;6.72;70.29
22662;BME280;11497;52.222;21.246;2024-02-16T00:23:30;101042.69;;;6.52;70.96
22662;BME280;11497;52.222;21.246;2024-02-16T00:25:58;101046.06;;;6.51;70.96
22662;BME280;11497;52.222;21.246;2024-02-16T00:28:26;101046.97;;;6.52;71.18
22662;BME280;11497;52.222;21.246;2024-02-16T00:30:54;101048.13;;;6.63;71.01
22662;BME280;11497;52.222;21.246;2024-02-16T00:33:22;101045.53;;;6.62;70.82
22662;BME280;11497;52.222;21.246;2024-02-16T00:35:50;101051.19;;;6.51;71.01
22662;BME280;11497;52.222;21.246;2024-02-16T00:38:21;101045.66;;;6.66;70.78
22662;BME280;11497;52.222;21.246;2024-02-16T00:40:50;101044.50;;;6.55;71.32
22662;BME280;11497;52.222;21.246;2024-02-16T00:43:18;101043.72;;;6.57;71.11
22662;BME280;11497;52.222;21.246;2024-02-16T00:45:46;101039.75;;;6.67;70.62
22662;BME280;11497;52.222;21.246;2024-02-16T00:48:14;101050.56;;;6.59;71.10
22662;BME280;11497;52.222;21.246;2024-02-16T00:50:42;101044.75;;;6.64;70.16
22662;BME280;11497;52.222;21.246;2024-02-16T00:53:12;101044.50;;;6.55;70.90
22662;BME280;11497;52.222;21.246;2024-02-16T00:55:40;101044.34;;;6.50;71.29
22662;BME280;11497;52.222;21.246;2024-02-16T00:58:09;101038.63;;;6.59;70.33
22662;BME280;11497;52.222;21.246;2024-02-16T01:00:37;101038.53;;;6.56;71.16
22662;BME280;11497;52.222;21.246;2024-02-16T01:03:06;101029.41;;;6.64;70.52
22662;BME280;11497;52.222;21.246;2024-02-16T01:05:34;101032.06;;;6.67;69.78
22662;BME280;11497;52.222;21.246;2024-02-16T01:08:03;101030.88;;;6.56;70.29
22662;BME280;11497;52.222;21.246;2024-02-16T01:10:31;101021.53;;;6.58;70.55
22662;BME280;11497;52.222;21.246;2024-02-16T01:13:00;101015.56;;;6.57;70.63
22662;BME280;11497;52.222;21.246;2024-02-16T01:15:27;101021.13;;;6.73;69.28
22662;BME280;11497;52.222;21.246;2024-02-16T01:17:56;101019.13;;;6.63;69.71
22662;BME280;11497;52.222;21.246;2024-02-16T01:20:24;101020.53;;;6.53;70.53
22662;BME280;11497;52.222;21.246;2024-02-16T01:22:52;101017.16;;;6.54;69.82
22662;BME280;11497;52.222;21.246;2024-02-16T01:25:20;101006.25;;;6.60;69.40
22662;BME280;11497;52.222;21.246;2024-02-16T01:27:48;100994.75;;;6.45;70.63
22662;BME280;11497;52.222;21.246;2024-02-16T01:30:16;101002.22;;;6.39;70.33
22662;BME280;11497;52.222;21.246;2024-02-16T01:32:46;100994.00;;;6.49;69.88
22662;BME280;11497;52.222;21.246;2024-02-16T01:35:15;101003.06;;;6.38;70.50
22662;BME280;11497;52.222;21.246;2024-02-16T01:37:43;100998.56;;;6.31;69.96
22662;BME280;11497;52.222;21.246;2024-02-16T01:40:11;100992.31;;;6.21;70.94
22662;BME280;11497;52.222;21.246;2024-02-16T01:42:46;100982.13;;;6.23;70.24
22662;BME280;11497;52.222;21.246;2024-02-16T01:45:14;100980.75;;;6.34;70.27
22662;BME280;11497;52.222;21.246;2024-02-16T01:47:44;100983.31;;;6.34;69.56
22662;BME280;11497;52.222;21.246;2024-02-16T01:50:16;100985.28;;;6.14;70.46
22662;BME280;11497;52.222;21.246;2024-02-16T01:52:46;100982.38;;;6.03;70.68
22662;BME280;11497;52.222;21.246;2024-02-16T01:55:15;100981.41;;;5.99;71.21
22662;BME280;11497;52.222;21.246;2024-02-16T01:57:46;100985.41;;;5.93;70.59
22662;BME280;11497;52.222;21.246;2024-02-16T02:00:15;100980.13;;;5.87;70.91
22662;BME280;11497;52.222;21.246;2024-02-16T02:02:46;100978.38;;;5.86;71.64
22662;BME280;11497;52.222;21.246;2024-02-16T02:05:14;100974.13;;;5.85;71.42
22662;BME280;11497;52.222;21.246;2024-02-16T02:07:44;100979.25;;;5.86;71.06
22662;BME280;11497;52.222;21.246;2024-02-16T02:10:11;100977.81;;;5.94;71.16
22662;BME280;11497;52.222;21.246;2024-02-16T02:12:42;100981.84;;;5.88;71.12
22662;BME280;11497;52.222;21.246;2024-02-16T02:15:10;100982.75;;;5.88;71.46
22662;BME280;11497;52.222;21.246;2024-02-16T02:17:39;100975.88;;;5.87;71.20
22662;BME280;11497;52.222;21.246;2024-02-16T02:20:08;100978.59;;;5.92;70.71
22662;BME280;11497;52.222;21.246;2024-02-16T02:22:39;100982.47;;;5.80;71.44
22662;BME280;11497;52.222;21.246;2024-02-16T02:25:07;100977.22;;;5.76;71.43
22662;BME280;11497;52.222;21.246;2024-02-16T02:27:39;100976.44;;;5.78;71.19
22662;BME280;11497;52.222;21.246;2024-02-16T02:30:07;100969.53;;;5.76;71.50
22662;BME280;11497;52.222;21.246;2024-02-16T02:32:35;100970.09;;;5.66;71.46
22662;BME280;11497;52.222;21.246;2024-02-16T02:35:04;100969.16;;;5.63;71.13
22662;BME280;11497;52.222;21.246;2024-02-16T02:37:32;100970.13;;;5.67;71.28
22662;BME280;11497;52.222;21.246;2024-02-16T02:40:00;100967.38;;;5.61;72.00
22662;BME280;11497;52.222;21.246;2024-02-16T02:42:28;100972.94;;;5.49;71.30
22662;BME280;11497;52.222;21.246;2024-02-16T02:44:56;100965.16;;;5.46;72.15
22662;BME280;11497;52.222;21.246;2024-02-16T02:47:24;100968.34;;;5.39;72.03
22662;BME280;11497;52.222;21.246;2024-02-16T02:49:52;100969.66;;;5.28;72.77
22662;BME280;11497;52.222;21.246;2024-02-16T02:52:22;100975.16;;;5.14;72.82
22662;BME280;11497;52.222;21.246;2024-02-16T02:54:50;100972.22;;;5.03;72.81
22662;BME280;11497;52.222;21.246;2024-02-16T02:57:18;100974.34;;;4.91;73.40
22662;BME280;11497;52.222;21.246;2024-02-16T02:59:46;100975.81;;;4.84;73.76
22662;BME280;11497;52.222;21.246;2024-02-16T03:02:14;100982.16;;;4.72;74.02
22662;BME280;11497;52.222;21.246;2024-02-16T03:04:42;100978.22;;;4.80;73.86
22662;BME280;11497;52.222;21.246;2024-02-16T03:07:10;100979.44;;;4.67;74.02
22662;BME280;11497;52.222;21.246;2024-02-16T03:09:38;100988.16;;;4.74;74.26
22662;BME280;11497;52.222;21.246;2024-02-16T03:12:06;100983.31;;;4.57;74.10
22662;BME280;11497;52.222;21.246;2024-02-16T03:14:34;100978.66;;;4.47;74.30
22662;BME280;11497;52.222;21.246;2024-02-16T03:17:02;100978.66;;;4.47;74.62
22662;BME280;11497;52.222;21.246;2024-02-16T03:19:31;100983.31;;;4.35;75.04
22662;BME280;11497;52.222;21.246;2024-02-16T03:22:00;100986.50;;;4.29;75.05
22662;BME280;11497;52.222;21.246;2024-02-16T03:24:27;100985.44;;;4.24;75.19
22662;BME280;11497;52.222;21.246;2024-02-16T03:26:55;100984.47;;;4.20;75.70
22662;BME280;11497;52.222;21.246;2024-02-16T03:29:23;100985.66;;;4.07;76.05
22662;BME280;11497;52.222;21.246;2024-02-16T03:31:52;100989.88;;;4.07;76.07
22662;BME280;11497;52.222;21.246;2024-02-16T03:34:19;100983.63;;;3.99;76.39
22662;BME280;11497;52.222;21.246;2024-02-16T03:36:48;100988.03;;;4.03;76.07
22662;BME280;11497;52.222;21.246;2024-02-16T03:39:15;100988.53;;;3.94;76.10
22662;BME280;11497;52.222;21.246;2024-02-16T03:41:48;100990.91;;;3.89;76.47
22662;BME280;11497;52.222;21.246;2024-02-16T03:44:16;100991.38;;;4.02;75.92
22662;BME280;11497;52.222;21.246;2024-02-16T03:46:44;100985.59;;;3.85;76.81
22662;BME280;11497;52.222;21.246;2024-02-16T03:49:12;100997.56;;;3.86;76.34
22662;BME280;11497;52.222;21.246;2024-02-16T03:51:40;100988.59;;;3.74;76.87
22662;BME280;11497;52.222;21.246;2024-02-16T03:54:08;100993.53;;;3.70;76.81
22662;BME280;11497;52.222;21.246;2024-02-16T03:56:36;100990.97;;;3.70;76.63
22662;BME280;11497;52.222;21.246;2024-02-16T03:59:04;100989.47;;;3.75;76.76
22662;BME280;11497;52.222;21.246;2024-02-16T04:01:36;100992.97;;;3.77;76.71
22662;BME280;11497;52.222;21.246;2024-02-16T04:04:05;100988.59;;;3.74;76.18
22662;BME280;11497;52.222;21.246;2024-02-16T04:06:33;100986.38;;;3.61;76.90
22662;BME280;11497;52.222;21.246;2024-02-16T04:09:01;100981.81;;;3.54;77.21
22662;BME280;11497;52.222;21.246;2024-02-16T04:11:29;100978.16;;;3.47;77.09
22662;BME280;11497;52.222;21.246;2024-02-16T04:13:58;100986.53;;;3.66;76.75
22662;BME280;11497;52.222;21.246;2024-02-16T04:16:26;100983.63;;;3.78;76.31
22662;BME280;11497;52.222;21.246;2024-02-16T04:18:54;100984.63;;;3.81;75.59
22662;BME280;11497;52.222;21.246;2024-02-16T04:21:23;100986.47;;;3.64;76.11
22662;BME280;11497;52.222;21.246;2024-02-16T04:23:51;100988.78;;;3.58;76.20
22662;BME280;11497;52.222;21.246;2024-02-16T04:26:19;100987.31;;;3.63;76.10
22662;BME280;11497;52.222;21.246;2024-02-16T04:28:47;100989.78;;;3.62;76.26
22662;BME280;11497;52.222;21.246;2024-02-16T04:31:15;100987.38;;;3.65;76.22
22662;BME280;11497;52.222;21.246;2024-02-16T04:33:43;100986.59;;;3.67;76.10
22662;BME280;11497;52.222;21.246;2024-02-16T04:36:11;100984.94;;;3.68;76.28
22662;BME280;11497;52.222;21.246;2024-02-16T04:38:39;100991.97;;;3.73;75.92
22662;BME280;11497;52.222;21.246;2024-02-16T04:41:08;100985.88;;;3.70;75.86
22662;BME280;11497;52.222;21.246;2024-02-16T04:43:36;100986.38;;;3.61;76.04
22662;BME280;11497;52.222;21.246;2024-02-16T04:46:04;100988.72;;;3.56;75.85
22662;BME280;11497;52.222;21.246;2024-02-16T04:48:32;100989.59;;;3.57;75.88
22662;BME280;11497;52.222;21.246;2024-02-16T04:51:02;100975.16;;;3.57;75.66
22662;BME280;11497;52.222;21.246;2024-02-16T04:53:30;100989.44;;;3.54;75.42
22662;BME280;11497;52.222;21.246;2024-02-16T04:55:58;100979.75;;;3.45;75.88
22662;BME280;11497;52.222;21.246;2024-02-16T04:58:26;100988.81;;;3.38;76.17
22662;BME280;11497;52.222;21.246;2024-02-16T05:00:54;100979.69;;;3.44;75.92
22662;BME280;11497;52.222;21.246;2024-02-16T05:03:22;100982.22;;;3.44;76.02
22662;BME280;11497;52.222;21.246;2024-02-16T05:05:50;100974.09;;;3.31;76.47
22662;BME280;11497;52.222;21.246;2024-02-16T05:08:22;100974.72;;;3.26;76.39
22662;BME280;11497;52.222;21.246;2024-02-16T05:10:50;100971.69;;;3.34;76.19
22662;BME280;11497;52.222;21.246;2024-02-16T05:13:18;100976.31;;;3.24;76.27
22662;BME280;11497;52.222;21.246;2024-02-16T05:15:46;100972.88;;;3.23;76.47
22662;BME280;11497;52.222;21.246;2024-02-16T05:18:16;100968.41;;;3.17;76.60
22662;BME280;11497;52.222;21.246;2024-02-16T05:20:45;100974.50;;;3.21;76.70
22662;BME280;11497;52.222;21.246;2024-02-16T05:23:14;100971.25;;;3.24;76.38
22662;BME280;11497;52.222;21.246;2024-02-16T05:25:42;100973.78;;;3.24;76.41
22662;BME280;11497;52.222;21.246;2024-02-16T05:28:10;100969.16;;;3.15;76.69
22662;BME280;11497;52.222;21.246;2024-02-16T05:30:40;100974.78;;;3.08;76.97
22662;BME280;11497;52.222;21.246;2024-02-16T05:33:07;100970.56;;;3.08;76.73
22662;BME280;11497;52.222;21.246;2024-02-16T05:35:36;100971.09;;;3.21;76.87
22662;BME280;11497;52.222;21.246;2024-02-16T05:38:07;100974.13;;;3.12;77.03
22662;BME280;11497;52.222;21.246;2024-02-16T05:40:48;100976.59;;;3.10;76.90
22662;BME280;11497;52.222;21.246;2024-02-16T05:43:24;100977.31;;;3.08;77.02
22662;BME280;11497;52.222;21.246;2024-02-16T05:45:52;100982.16;;;3.02;77.08
22662;BME280;11497;52.222;21.246;2024-02-16T05:48:20;100982.41;;;3.08;76.93
22662;BME280;11497;52.222;21.246;2024-02-16T05:50:50;100987.69;;;3.12;76.68
22662;BME280;11497;52.222;21.246;2024-02-16T05:53:18;100995.63;;;3.18;77.00
22662;BME280;11497;52.222;21.246;2024-02-16T05:55:49;101000.56;;;3.15;76.66
22662;BME280;11497;52.222;21.246;2024-02-16T05:58:17;100999.50;;;3.10;76.90
22662;BME280;11497;52.222;21.246;2024-02-16T06:00:45;101010.22;;;3.03;76.99
22662;BME280;11497;52.222;21.246;2024-02-16T06:03:15;101004.25;;;3.03;77.17
22662;BME280;11497;52.222;21.246;2024-02-16T06:05:43;101004.28;;;3.04;77.09
22662;BME280;11497;52.222;21.246;2024-02-16T06:08:12;101003.72;;;3.10;77.28
22662;BME280;11497;52.222;21.246;2024-02-16T06:10:40;100997.88;;;3.12;76.96
22662;BME280;11497;52.222;21.246;2024-02-16T06:13:10;101006.03;;;3.25;76.89
22662;BME280;11497;52.222;21.246;2024-02-16T06:15:38;101014.25;;;3.38;76.21
22662;BME280;11497;52.222;21.246;2024-02-16T06:18:06;101010.13;;;3.41;75.82
22662;BME280;11497;52.222;21.246;2024-02-16T06:20:35;101015.66;;;3.51;75.65
22662;BME280;11497;52.222;21.246;2024-02-16T06:23:02;101016.72;;;3.56;75.55
22662;BME280;11497;52.222;21.246;2024-02-16T06:25:30;101012.56;;;3.59;75.17
22662;BME280;11497;52.222;21.246;2024-02-16T06:27:59;101022.25;;;3.67;75.06
22662;BME280;11497;52.222;21.246;2024-02-16T06:30:27;101023.75;;;3.83;74.58
22662;BME280;11497;52.222;21.246;2024-02-16T06:32:55;101020.78;;;3.93;74.55
22662;BME280;11497;52.222;21.246;2024-02-16T06:35:25;101027.22;;;4.27;73.57
22662;BME280;11497;52.222;21.246;2024-02-16T06:37:53;101025.97;;;4.84;72.38
22662;BME280;11497;52.222;21.246;2024-02-16T06:40:21;101025.31;;;5.38;71.49
22662;BME280;11497;52.222;21.246;2024-02-16T06:42:49;101021.13;;;5.91;70.24
22662;BME280;11497;52.222;21.246;2024-02-16T06:45:17;101030.63;;;6.19;67.82
22662;BME280;11497;52.222;21.246;2024-02-16T06:47:45;101028.63;;;6.67;66.29
22662;BME280;11497;52.222;21.246;2024-02-16T06:50:13;101026.91;;;6.66;65.28
22662;BME280;11497;52.222;21.246;2024-02-16T06:52:41;101027.16;;;6.46;65.37
22662;BME280;11497;52.222;21.246;2024-02-16T06:55:10;101033.22;;;6.48;64.64
22662;BME280;11497;52.222;21.246;2024-02-16T06:57:37;101035.69;;;6.74;64.91
22662;BME280;11497;52.222;21.246;2024-02-16T07:00:07;101032.13;;;6.99;63.94
22662;BME280;11497;52.222;21.246;2024-02-16T07:02:36;101037.75;;;7.18;62.75
22662;BME280;11497;52.222;21.246;2024-02-16T07:05:04;101032.03;;;7.26;62.59
22662;BME280;11497;52.222;21.246;2024-02-16T07:07:32;101030.31;;;7.59;61.17
22662;BME280;11497;52.222;21.246;2024-02-16T07:10:03;101034.09;;;7.73;60.08
22662;BME280;11497;52.222;21.246;2024-02-16T07:12:32;101041.31;;;7.88;59.05
22662;BME280;11497;52.222;21.246;2024-02-16T07:15:02;101031.38;;;7.67;59.68
22662;BME280;11497;52.222;21.246;2024-02-16T07:17:30;101030.44;;;7.63;60.22
22662;BME280;11497;52.222;21.246;2024-02-16T07:19:58;101033.88;;;7.64;59.76
22662;BME280;11497;52.222;21.246;2024-02-16T07:22:28;101034.53;;;7.57;59.46
22662;BME280;11497;52.222;21.246;2024-02-16T07:24:56;101036.81;;;7.46;59.57
22662;BME280;11497;52.222;21.246;2024-02-16T07:27:23;101034.94;;;7.40;60.42
22662;BME280;11497;52.222;21.246;2024-02-16T07:29:52;101033.41;;;7.47;60.11
22662;BME280;11497;52.222;21.246;2024-02-16T07:32:20;101040.00;;;7.37;60.58
22662;BME280;11497;52.222;21.246;2024-02-16T07:34:48;101040.28;;;7.48;60.95
22662;BME280;11497;52.222;21.246;2024-02-16T07:37:16;101046.41;;;7.53;61.81
22662;BME280;11497;52.222;21.246;2024-02-16T07:39:44;101047.44;;;7.61;60.40
22662;BME280;11497;52.222;21.246;2024-02-16T07:42:12;101050.66;;;7.86;60.01
22662;BME280;11497;52.222;21.246;2024-02-16T07:44:41;101044.47;;;8.13;58.67
22662;BME280;11497;52.222;21.246;2024-02-16T07:47:09;101047.50;;;8.33;57.91
22662;BME280;11497;52.222;21.246;2024-02-16T07:49:38;101044.16;;;8.37;57.89
22662;BME280;11497;52.222;21.246;2024-02-16T07:52:07;101053.13;;;8.54;56.46
22662;BME280;11497;52.222;21.246;2024-02-16T07:54:36;101041.88;;;8.86;54.90
22662;BME280;11497;52.222;21.246;2024-02-16T07:57:04;101031.56;;;9.27;53.94
22662;BME280;11497;52.222;21.246;2024-02-16T07:59:32;101039.25;;;9.74;52.59
22662;BME280;11497;52.222;21.246;2024-02-16T08:02:00;101040.00;;;9.68;52.00
22662;BME280;11497;52.222;21.246;2024-02-16T08:04:31;101048.22;;;9.98;52.52
22662;BME280;11497;52.222;21.246;2024-02-16T08:06:59;101048.28;;;10.59;51.06
22662;BME280;11497;52.222;21.246;2024-02-16T08:09:29;101037.72;;;11.03;49.48
22662;BME280;11497;52.222;21.246;2024-02-16T08:11:57;101027.84;;;11.40;47.26
22662;BME280;11497;52.222;21.246;2024-02-16T08:14:25;101033.38;;;11.83;45.96
22662;BME280;11497;52.222;21.246;2024-02-16T08:16:53;101032.03;;;12.27;45.61
22662;BME280;11497;52.222;21.246;2024-02-16T08:19:36;101031.72;;;13.80;42.41
22662;BME280;11497;52.222;21.246;2024-02-16T08:22:06;101020.16;;;15.25;38.62
22662;BME280;11497;52.222;21.246;2024-02-16T08:24:36;101021.47;;;16.73;35.23
22662;BME280;11497;52.222;21.246;2024-02-16T08:27:04;101022.19;;;17.52;33.06
22662;BME280;11497;52.222;21.246;2024-02-16T08:29:33;101016.66;;;18.25;32.36
22662;BME280;11497;52.222;21.246;2024-02-16T08:32:00;101016.44;;;19.23;30.60
22662;BME280;11497;52.222;21.246;2024-02-16T08:34:31;101018.25;;;20.28;28.79
22662;BME280;11497;52.222;21.246;2024-02-16T08:36:59;101016.66;;;20.86;27.11
22662;BME280;11497;52.222;21.246;2024-02-16T08:39:29;101016.75;;;21.13;25.57
22662;BME280;11497;52.222;21.246;2024-02-16T08:41:58;101020.91;;;21.48;25.47
22662;BME280;11497;52.222;21.246;2024-02-16T08:44:29;101015.25;;;21.61;24.92
22662;BME280;11497;52.222;21.246;2024-02-16T08:46:57;101017.63;;;21.68;24.50
22662;BME280;11497;52.222;21.246;2024-02-16T08:49:25;101023.34;;;21.54;24.60
22662;BME280;11497;52.222;21.246;2024-02-16T08:51:53;101023.03;;;21.90;24.69
22662;BME280;11497;52.222;21.246;2024-02-16T08:54:21;101015.44;;;22.08;23.60
22662;BME280;11497;52.222;21.246;2024-02-16T08:56:49;101017.03;;;22.62;23.26
22662;BME280;11497;52.222;21.246;2024-02-16T08:59:17;101016.13;;;22.87;22.86
22662;BME280;11497;52.222;21.246;2024-02-16T09:01:45;101015.31;;;23.31;22.65
22662;BME280;11497;52.222;21.246;2024-02-16T09:04:13;101014.16;;;23.38;22.40
22662;BME280;11497;52.222;21.246;2024-02-16T09:06:41;101008.78;;;23.63;22.24
22662;BME280;11497;52.222;21.246;2024-02-16T09:09:09;101014.25;;;23.79;21.88
22662;BME280;11497;52.222;21.246;2024-02-16T09:11:38;101020.41;;;24.21;21.53
22662;BME280;11497;52.222;21.246;2024-02-16T09:14:06;101016.47;;;24.31;21.29
22662;BME280;11497;52.222;21.246;2024-02-16T09:16:34;101015.56;;;24.51;20.74
22662;BME280;11497;52.222;21.246;2024-02-16T09:19:02;101010.00;;;24.78;20.84
22662;BME280;11497;52.222;21.246;2024-02-16T09:21:30;101006.53;;;24.96;20.51
22662;BME280;11497;52.222;21.246;2024-02-16T09:23:58;100998.38;;;25.01;19.74
22662;BME280;11497;52.222;21.246;2024-02-16T09:26:29;101001.97;;;24.81;20.54
22662;BME280;11497;52.222;21.246;2024-02-16T09:29:02;101004.75;;;24.78;20.60
22662;BME280;11497;52.222;21.246;2024-02-16T09:31:30;101002.03;;;24.98;20.61
22662;BME280;11497;52.222;21.246;2024-02-16T09:33:58;101001.53;;;24.90;20.23
22662;BME280;11497;52.222;21.246;2024-02-16T09:36:26;100997.75;;;24.58;20.74
22662;BME280;11497;52.222;21.246;2024-02-16T09:38:54;100989.06;;;24.35;20.94
22662;BME280;11497;52.222;21.246;2024-02-16T09:41:22;100989.13;;;24.54;21.09
22662;BME280;11497;52.222;21.246;2024-02-16T09:43:51;100997.66;;;24.20;21.09
22662;BME280;11497;52.222;21.246;2024-02-16T09:46:22;100988.78;;;24.62;20.77
22662;BME280;11497;52.222;21.246;2024-02-16T09:48:51;100989.97;;;24.93;20.76
22662;BME280;11497;52.222;21.246;2024-02-16T09:51:20;100993.19;;;24.99;20.57
22662;BME280;11497;52.222;21.246;2024-02-16T09:53:50;100983.78;;;24.16;21.11
22662;BME280;11497;52.222;21.246;2024-02-16T09:56:23;100977.50;;;24.19;21.41
22662;BME280;11497;52.222;21.246;2024-02-16T09:58:54;100976.56;;;24.40;20.75
22662;BME280;11497;52.222;21.246;2024-02-16T10:01:25;100979.22;;;24.20;20.83
22662;BME280;11497;52.222;21.246;2024-02-16T10:03:53;100969.63;;;23.98;21.71
22662;BME280;11497;52.222;21.246;2024-02-16T10:06:21;100977.06;;;24.29;21.52
22662;BME280;11497;52.222;21.246;2024-02-16T10:08:53;100955.63;;;23.34;22.05
22662;BME280;11497;52.222;21.246;2024-02-16T10:11:23;100955.34;;;23.63;22.06
22662;BME280;11497;52.222;21.246;2024-02-16T10:14:15;100963.56;;;23.75;21.65
22662;BME280;11497;52.222;21.246;2024-02-16T10:16:43;100954.09;;;23.51;21.99
22662;BME280;11497;52.222;21.246;2024-02-16T10:19:11;100958.75;;;23.87;21.96
22662;BME280;11497;52.222;21.246;2024-02-16T10:21:44;100957.28;;;23.80;21.71
22662;BME280;11497;52.222;21.246;2024-02-16T10:24:12;100955.22;;;23.45;22.16
22662;BME280;11497;52.222;21.246;2024-02-16T10:26:43;100954.16;;;23.05;22.65
22662;BME280;11497;52.222;21.246;2024-02-16T10:29:11;100955.22;;;23.23;22.71
22662;BME280;11497;52.222;21.246;2024-02-16T10:31:41;100952.59;;;23.23;22.62
22662;BME280;11497;52.222;21.246;2024-02-16T10:34:09;100952.75;;;22.51;23.49
22662;BME280;11497;52.222;21.246;2024-02-16T10:36:39;100953.09;;;22.16;24.21
22662;BME280;11497;52.222;21.246;2024-02-16T10:39:09;100942.22;;;20.67;26.61
22662;BME280;11497;52.222;21.246;2024-02-16T10:41:41;100945.41;;;19.10;29.38
22662;BME280;11497;52.222;21.246;2024-02-16T10:44:10;100944.72;;;17.67;32.11
22662;BME280;11497;52.222;21.246;2024-02-16T10:46:38;100940.22;;;16.57;34.25
22662;BME280;11497;52.222;21.246;2024-02-16T10:49:07;100939.28;;;15.83;36.07
22662;BME280;11497;52.222;21.246;2024-02-16T10:51:40;100931.13;;;15.19;38.08
22662;BME280;11497;52.222;21.246;2024-02-16T10:54:10;100923.63;;;14.78;38.62
22662;BME280;11497;52.222;21.246;2024-02-16T10:56:41;100923.78;;;14.41;39.83
22662;BME280;11497;52.222;21.246;2024-02-16T10:59:10;100925.53;;;14.30;40.26
22662;BME280;11497;52.222;21.246;2024-02-16T11:01:43;100923.03;;;13.96;41.70
22662;BME280;11497;52.222;21.246;2024-02-16T11:04:19;100917.88;;;13.80;42.05
22662;BME280;11497;52.222;21.246;2024-02-16T11:07:14;100911.88;;;13.72;42.14
22662;BME280;11497;52.222;21.246;2024-02-16T11:09:44;100912.75;;;13.46;43.06
22662;BME280;11497;52.222;21.246;2024-02-16T11:12:14;100897.22;;;13.37;43.44
22662;BME280;11497;52.222;21.246;2024-02-16T11:14:46;100898.03;;;13.21;43.98
22662;BME280;11497;52.222;21.246;2024-02-16T11:17:21;100898.88;;;13.30;44.11
22662;BME280;11497;52.222;21.246;2024-02-16T11:19:49;100895.44;;;13.25;44.63
22662;BME280;11497;52.222;21.246;2024-02-16T11:22:19;100895.47;;;13.08;45.19
22662;BME280;11497;52.222;21.246;2024-02-16T11:24:53;100890.28;;;12.94;46.60
22662;BME280;11497;52.222;21.246;2024-02-16T11:27:27;100889.38;;;12.91;46.48
22662;BME280;11497;52.222;21.246;2024-02-16T11:29:59;100880.78;;;12.97;46.90
22662;BME280;11497;52.222;21.246;2024-02-16T11:32:32;100884.22;;;12.95;47.14
22662;BME280;11497;52.222;21.246;2024-02-16T11:35:08;100885.09;;;13.13;46.34
22662;BME280;11497;52.222;21.246;2024-02-16T11:37:37;100875.59;;;13.03;47.02
22662;BME280;11497;52.222;21.246;2024-02-16T11:40:06;100873.03;;;13.07;47.06
22662;BME280;11497;52.222;21.246;2024-02-16T11:42:36;100870.47;;;13.00;47.53
22662;BME280;11497;52.222;21.246;2024-02-16T11:45:04;100865.28;;;13.09;47.60
22662;BME280;11497;52.222;21.246;2024-02-16T11:47:34;100861.84;;;13.13;47.19
22662;BME280;11497;52.222;21.246;2024-02-16T11:50:06;100865.28;;;13.10;47.53
22662;BME280;11497;52.222;21.246;2024-02-16T11:52:42;100848.91;;;13.02;48.01
22662;BME280;11497;52.222;21.246;2024-02-16T11:55:13;100856.66;;;12.96;48.39
22662;BME280;11497;52.222;21.246;2024-02-16T11:57:43;100854.94;;;13.01;47.92
22662;BME280;11497;52.222;21.246;2024-02-16T12:00:16;100857.53;;;13.00;48.50
22662;BME280;11497;52.222;21.246;2024-02-16T12:02:44;100850.66;;;13.03;48.23
22662;BME280;11497;52.222;21.246;2024-02-16T12:05:14;100846.34;;;13.07;48.32
22662;BME280;11497;52.222;21.246;2024-02-16T12:07:43;100848.06;;;13.12;48.22
22662;BME280;11497;52.222;21.246;2024-02-16T12:10:13;100840.28;;;13.20;47.77
22662;BME280;11497;52.222;21.246;2024-02-16T12:12:41;100845.47;;;13.19;47.96
22662;BME280;11497;52.222;21.246;2024-02-16T12:15:11;100842.03;;;13.12;48.44
22662;BME280;11497;52.222;21.246;2024-02-16T12:17:41;100840.28;;;13.25;48.19
22662;BME280;11497;52.222;21.246;2024-02-16T12:20:13;100834.25;;;13.18;48.31
22662;BME280;11497;52.222;21.246;2024-02-16T12:22:44;100832.56;;;13.17;48.74
22662;BME280;11497;52.222;21.246;2024-02-16T12:25:12;100826.50;;;13.17;48.76
22662;BME280;11497;52.222;21.246;2024-02-16T12:27:40;100820.50;;;13.22;49.00
22662;BME280;11497;52.222;21.246;2024-02-16T12:30:08;100826.50;;;13.18;48.76
22662;BME280;11497;52.222;21.246;2024-02-16T12:32:37;100812.72;;;13.22;48.79
22662;BME280;11497;52.222;21.246;2024-02-16T12:35:05;100814.44;;;13.36;48.28
22662;BME280;11497;52.222;21.246;2024-02-16T12:37:34;100809.28;;;13.28;48.62
22662;BME280;11497;52.222;21.246;2024-02-16T12:40:02;100818.75;;;13.27;49.20
22662;BME280;11497;52.222;21.246;2024-02-16T12:42:31;100811.84;;;13.29;49.29
22662;BME280;11497;52.222;21.246;2024-02-16T12:44:59;100812.75;;;13.36;49.03
22662;BME280;11497;52.222;21.246;2024-02-16T12:47:27;100814.44;;;13.36;48.87
22662;BME280;11497;52.222;21.246;2024-02-16T12:49:56;100811.03;;;13.43;48.48
22662;BME280;11497;52.222;21.246;2024-02-16T12:52:28;100801.53;;;13.43;48.25
22662;BME280;11497;52.222;21.246;2024-02-16T12:54:57;100807.56;;;13.36;48.91